Salta, Argentina
Current Conditions -  °F | °C
As of 9:00 PM on Wednesday 17 Dec 2014 (Local Time) from SASA Reporting Station
Overcast Overcast  
Wind Chill: 66°   Ceiling: 10000
Heat Index: 66°   Visibility: 6mi
Dew Point: 61°   Wind: 8mph
Humidity: 83%   Direction: 200°SSW
Pressure: 30.12"   Gusts: NA
Location:  24.79°S, 65.41°W
Report Text: SASA 180000Z 20007KT 9999 FEW008 SCT020OVC100 19/16 Q1020
Loading
Personal Weather Stations






























Interactive Weather Map New forecast layout! Learn more

10-Day Weather Forecast

Advertisements
Track Severe Weather on mobile